地図

経路データ

SID SEASON NUMBER BASIN SUBBASIN NAME ISO_TIME NATURE LAT LON WMO_WIND WMO_PRES WMO_AGENCY TRACK_TYPE DIST2LAND LANDFALL IFLAG USA_AGENCY USA_ATCF_ID USA_LAT USA_LON USA_RECORD USA_STATUS USA_WIND USA_PRES USA_SSHS USA_R34_NE USA_R34_SE USA_R34_SW USA_R34_NW USA_R50_NE USA_R50_SE USA_R50_SW USA_R50_NW USA_R64_NE USA_R64_SE USA_R64_SW USA_R64_NW USA_POCI USA_ROCI USA_RMW USA_EYE TOKYO_LAT TOKYO_LON TOKYO_GRADE TOKYO_WIND TOKYO_PRES TOKYO_R50_DIR TOKYO_R50_LONG TOKYO_R50_SHORT TOKYO_R30_DIR TOKYO_R30_LONG TOKYO_R30_SHORT TOKYO_LAND CMA_LAT CMA_LON CMA_CAT CMA_WIND CMA_PRES HKO_LAT HKO_LON HKO_CAT HKO_WIND HKO_PRES NEWDELHI_LAT NEWDELHI_LON NEWDELHI_GRADE NEWDELHI_WIND NEWDELHI_PRES NEWDELHI_CI NEWDELHI_DP NEWDELHI_POCI REUNION_LAT REUNION_LON REUNION_TYPE REUNION_WIND REUNION_PRES REUNION_TNUM REUNION_CI REUNION_RMW REUNION_R34_NE REUNION_R34_SE REUNION_R34_SW REUNION_R34_NW REUNION_R50_NE REUNION_R50_SE REUNION_R50_SW REUNION_R50_NW REUNION_R64_NE REUNION_R64_SE REUNION_R64_SW REUNION_R64_NW BOM_LAT BOM_LON BOM_TYPE BOM_WIND BOM_PRES BOM_TNUM BOM_CI BOM_RMW BOM_R34_NE BOM_R34_SE BOM_R34_SW BOM_R34_NW BOM_R50_NE BOM_R50_SE BOM_R50_SW BOM_R50_NW BOM_R64_NE BOM_R64_SE BOM_R64_SW BOM_R64_NW BOM_ROCI BOM_POCI BOM_EYE BOM_POS_METHOD BOM_PRES_METHOD NADI_LAT NADI_LON NADI_CAT NADI_WIND NADI_PRES WELLINGTON_LAT WELLINGTON_LON WELLINGTON_WIND WELLINGTON_PRES DS824_LAT DS824_LON DS824_STAGE DS824_WIND DS824_PRES TD9636_LAT TD9636_LON TD9636_STAGE TD9636_WIND TD9636_PRES TD9635_LAT TD9635_LON TD9635_WIND TD9635_PRES TD9635_ROCI NEUMANN_LAT NEUMANN_LON NEUMANN_CLASS NEUMANN_WIND NEUMANN_PRES MLC_LAT MLC_LON MLC_CLASS MLC_WIND MLC_PRES USA_GUST BOM_GUST BOM_GUST_PER REUNION_GUST REUNION_GUST_PER USA_SEAHGT USA_SEARAD_NE USA_SEARAD_SE USA_SEARAD_SW USA_SEARAD_NW STORM_SPEED STORM_DIR
1863145N27272 1863 13 NA GM NOT_NAMED 1863-05-24 18:00:00 TS 27.0000 -88.0000 main 247 247 _____________O -1 27.0000 -88.0000 TD 30 3 109
1863145N27272 1863 13 NA GM NOT_NAMED 1863-05-24 21:00:00 TS 26.9500 -87.8400 main 257 257 _____________P -1 26.9500 -87.8400 TD 30 3 111
1863145N27272 1863 13 NA GM NOT_NAMED 1863-05-25 00:00:00 TS 26.9000 -87.7000 main 271 271 _____________O -1 26.9000 -87.7000 TD 30 2 115
1863145N27272 1863 13 NA GM NOT_NAMED 1863-05-25 03:00:00 TS 26.8500 -87.5925 main 286 286 _____________P -1 26.8500 -87.5925 TD 30 2 120
1863145N27272 1863 13 NA GM NOT_NAMED 1863-05-25 06:00:00 TS 26.8000 -87.5000 main 291 291 _____________O -1 26.8000 -87.5000 TD 30 2 122
1863145N27272 1863 13 NA GM NOT_NAMED 1863-05-25 09:00:00 TS 26.7425 -87.4000 main 306 306 _____________P -1 26.7425 -87.4000 TD 30 2 120
1863145N27272 1863 13 NA GM NOT_NAMED 1863-05-25 12:00:00 TS 26.7000 -87.3000 main 311 311 _____________O -1 26.7000 -87.3000 TD 30 2 105
1863145N27272 1863 13 NA GM NOT_NAMED 1863-05-25 15:00:00 TS 26.7000 -87.2150 main 317 317 _____________P -1 26.7000 -87.2150 TD 35 2 90
1863145N27272 1863 13 NA GM NOT_NAMED 1863-05-25 18:00:00 TS 26.7000 -87.1000 main 323 323 _____________O -1 26.7000 -87.1000 TS 40 3 99
1863145N27272 1863 13 NA GM NOT_NAMED 1863-05-25 21:00:00 TS 26.6576 -86.9075 main 335 335 _____________P -1 26.6576 -86.9075 TS 45 4 106
1863145N27272 1863 13 NA GM NOT_NAMED 1863-05-26 00:00:00 TS 26.6000 -86.7000 main 356 356 _____________O -1 26.6000 -86.7000 TS 50 3 109
1863145N27272 1863 13 NA GM NOT_NAMED 1863-05-26 03:00:00 TS 26.5499 -86.5500 main 371 370 _____________P -1 26.5499 -86.5500 TS 52 3 111
1863145N27272 1863 13 NA GM NOT_NAMED 1863-05-26 06:00:00 TS 26.5000 -86.4000 main 370 361 _____________O -1 26.5000 -86.4000 TS 55 3 109
1863145N27272 1863 13 NA GM NOT_NAMED 1863-05-26 09:00:00 TS 26.4425 -86.2000 main 366 349 _____________P -1 26.4425 -86.2000 TS 55 4 106
1863145N27272 1863 13 NA GM NOT_NAMED 1863-05-26 12:00:00 TS 26.4000 -86.0000 main 349 331 _____________O -1 26.4000 -86.0000 TS 55 3 100
1863145N27272 1863 13 NA GM NOT_NAMED 1863-05-26 15:00:00 TS 26.3850 -85.8350 main 331 323 _____________P -1 26.3850 -85.8350 TS 55 3 90
1863145N27272 1863 13 NA GM NOT_NAMED 1863-05-26 18:00:00 TS 26.4000 -85.7000 main 323 313 _____________O -1 26.4000 -85.7000 TS 55 2 75
1863145N27272 1863 13 NA GM NOT_NAMED 1863-05-26 21:00:00 TS 26.4425 -85.5925 main 313 300 _____________P -1 26.4425 -85.5925 TS 57 2 60
1863145N27272 1863 13 NA GM NOT_NAMED 1863-05-27 00:00:00 TS 26.5000 -85.5000 main 300 291 _____________O -1 26.5000 -85.5000 TS 60 2 58
1863145N27272 1863 13 NA GM NOT_NAMED 1863-05-27 03:00:00 TS 26.5500 -85.4000 main 286 277 _____________P -1 26.5500 -85.4000 TS 60 2 60
1863145N27272 1863 13 NA GM NOT_NAMED 1863-05-27 06:00:00 TS 26.6000 -85.3000 main 277 269 _____________O -1 26.6000 -85.3000 TS 60 2 61
1863145N27272 1863 13 NA GM NOT_NAMED 1863-05-27 09:00:00 TS 26.6500 -85.1925 main 263 255 _____________P -1 26.6500 -85.1925 TS 65 2 60
1863145N27272 1863 13 NA GM NOT_NAMED 1863-05-27 12:00:00 TS 26.7000 -85.1000 main 255 246 _____________O -1 26.7000 -85.1000 HU 70 1 74
1863145N27272 1863 13 NA GM NOT_NAMED 1863-05-27 15:00:00 TS 26.6900 -85.0350 main 246 240 _____________P -1 26.6900 -85.0350 HU 72 1 40
1863145N27272 1863 13 NA GM NOT_NAMED 1863-05-27 18:00:00 TS 26.8000 -85.0000 main 240 221 _____________O -1 26.8000 -85.0000 HU 75 5 5
1863145N27272 1863 13 NA GM NOT_NAMED 1863-05-27 21:00:00 TS 27.1900 -84.9925 main 221 207 _____________P -1 27.1900 -84.9925 HU 77 9 0
1863145N27272 1863 13 NA GM NOT_NAMED 1863-05-28 00:00:00 TS 27.7000 -85.0000 main 207 178 _____________O -1 27.7000 -85.0000 HU 80 10 359
1863145N27272 1863 13 NA GM NOT_NAMED 1863-05-28 03:00:00 TS 28.1500 -85.0000 main 167 122 _____________P -1 28.1500 -85.0000 HU 82 9 0
1863145N27272 1863 13 NA GM NOT_NAMED 1863-05-28 06:00:00 TS 28.6000 -85.0000 main 122 78 _____________O -1 28.6000 -85.0000 HU 85 9 3
1863145N27272 1863 13 NA GM NOT_NAMED 1863-05-28 09:00:00 TS 29.0424 -84.9483 main 78 22 _____________P -1 29.0424 -84.9483 HU 87 9 0
1863145N27272 1863 13 NA GM NOT_NAMED 1863-05-28 12:00:00 TS 29.5000 -85.0000 main 22 0 _____________O -1 29.5000 -85.0000 HU 90 968 10 341
1863145N27272 1863 13 NA NA NOT_NAMED 1863-05-28 15:00:00 TS 29.9703 -85.3120 main 0 0 _____________P -1 29.9703 -85.3120 HU 75 12 329
1863145N27272 1863 13 NA NA NOT_NAMED 1863-05-28 18:00:00 TS 30.5000 -85.7000 main 0 0 _____________O -1 30.5000 -85.7000 TS 60 13 334
1863145N27272 1863 13 NA NA NOT_NAMED 1863-05-28 21:00:00 TS 31.1274 -85.9654 main 0 0 _____________P -1 31.1274 -85.9654 TS 50 14 342
1863145N27272 1863 13 NA NA NOT_NAMED 1863-05-29 00:00:00 TS 31.8000 -86.2000 main 0 0 _____________O -1 31.8000 -86.2000 TS 40 14 343
1863145N27272 1863 13 NA NA NOT_NAMED 1863-05-29 03:00:00 TS 32.4499 -86.4504 main 0 0 _____________P -1 32.4499 -86.4504 TS 35 14 342
1863145N27272 1863 13 NA NA NOT_NAMED 1863-05-29 06:00:00 TS 33.1000 -86.7000 main 0 0 _____________O -1 33.1000 -86.7000 TD 30 14 342
1863145N27272 1863 13 NA NA NOT_NAMED 1863-05-29 09:00:00 TS 33.7499 -86.9430 main 0 0 _____________P -1 33.7499 -86.9430 TD 30 14 342
1863145N27272 1863 13 NA NA NOT_NAMED 1863-05-29 12:00:00 TS 34.4000 -87.2000 main 0 0 _____________O -1 34.4000 -87.2000 TD 30 14 341
1863145N27272 1863 13 NA NA NOT_NAMED 1863-05-29 15:00:00 TS 35.0575 -87.5000 main 0 0 _____________P -1 35.0575 -87.5000 TD 30 14 339
1863145N27272 1863 13 NA NA NOT_NAMED 1863-05-29 18:00:00 TS 35.7000 -87.8000 main 0 0 _____________O -1 35.7000 -87.8000 TD 30 13 337
1863145N27272 1863 13 NA NA NOT_NAMED 1863-05-29 21:00:00 TS 36.2700 -88.1312 main 0 0 _____________P -1 36.2700 -88.1312 TD 30 13 341
1863145N27272 1863 13 NA NA NOT_NAMED 1863-05-30 00:00:00 ET 36.9000 -88.3000 main 0 0 _____________O -1 36.9000 -88.3000 EX 30 14 359
1863145N27272 1863 13 NA NA NOT_NAMED 1863-05-30 03:00:00 ET 37.7123 -88.1629 main 0 0 _____________P -1 37.7123 -88.1629 EX 30 17 13
1863145N27272 1863 13 NA NA NOT_NAMED 1863-05-30 06:00:00 ET 38.6000 -87.8000 main 0 0 _____________O -1 38.6000 -87.8000 EX 30 18 19
1863145N27272 1863 13 NA NA NOT_NAMED 1863-05-30 09:00:00 ET 39.3732 -87.4422 main 0 0 _____________P -1 39.3732 -87.4422 EX 30 19 24
1863145N27272 1863 13 NA NA NOT_NAMED 1863-05-30 12:00:00 ET 40.3000 -86.8000 main 0 0 _____________O -1 40.3000 -86.8000 EX 30 24 31
1863145N27272 1863 13 NA NA NOT_NAMED 1863-05-30 15:00:00 ET 41.4367 -85.7921 main 0 0 _____________P -1 41.4367 -85.7921 EX 30 33 35
1863145N27272 1863 13 NA NA NOT_NAMED 1863-05-30 18:00:00 ET 43.0000 -84.3000 main 0 0 _____________O -1 43.0000 -84.3000 EX 30 45 35
1863145N27272 1863 13 NA NA NOT_NAMED 1863-05-30 21:00:00 ET 45.1076 -82.2685 main 0 0 _____________P -1 45.1076 -82.2685 EX 30 55 35
1863145N27272 1863 13 NA NA NOT_NAMED 1863-05-31 00:00:00 ET 47.5000 -79.8000 main 0 _____________O -1 47.5000 -79.8000 EX 30 58 35

IBTrACS Databaseについて

本データベースは、米国NOAAが公開する1842年以降の世界の熱帯低気圧のベストトラックデータアーカイブInternational Best Track Archive for Climate Stewardship (IBTrACS)を、ウェブで閲覧しやすい形式に変換したものです。

最終更新日:2021-10-27